sensor_id;sensor_type;location;lat;lon;timestamp;P1;durP1;ratioP1;P2;durP2;ratioP2
11255;SDS011;5685;52.384;13.420;2023-03-14T00:02:28;74.67;;;39.93;;
11255;SDS011;5685;52.384;13.420;2023-03-14T00:05:31;74.60;;;39.80;;
11255;SDS011;5685;52.384;13.420;2023-03-14T00:08:35;74.33;;;39.87;;
11255;SDS011;5685;52.384;13.420;2023-03-14T00:11:37;74.47;;;39.87;;
11255;SDS011;5685;52.384;13.420;2023-03-14T00:14:42;74.53;;;39.90;;
11255;SDS011;5685;52.384;13.420;2023-03-14T00:17:44;74.40;;;39.77;;
11255;SDS011;5685;52.384;13.420;2023-03-14T00:20:47;74.20;;;39.70;;
11255;SDS011;5685;52.384;13.420;2023-03-14T00:23:50;74.70;;;39.90;;
11255;SDS011;5685;52.384;13.420;2023-03-14T00:26:53;74.60;;;39.90;;
11255;SDS011;5685;52.384;13.420;2023-03-14T00:29:58;74.27;;;39.67;;
11255;SDS011;5685;52.384;13.420;2023-03-14T00:33:00;74.40;;;39.87;;
11255;SDS011;5685;52.384;13.420;2023-03-14T00:36:04;74.63;;;39.90;;
11255;SDS011;5685;52.384;13.420;2023-03-14T00:39:13;74.33;;;39.70;;
11255;SDS011;5685;52.384;13.420;2023-03-14T00:42:16;74.60;;;39.80;;
11255;SDS011;5685;52.384;13.420;2023-03-14T00:45:20;74.33;;;39.70;;
11255;SDS011;5685;52.384;13.420;2023-03-14T00:48:23;74.73;;;39.90;;
11255;SDS011;5685;52.384;13.420;2023-03-14T00:51:26;74.10;;;39.70;;
11255;SDS011;5685;52.384;13.420;2023-03-14T00:54:29;74.33;;;39.77;;
11255;SDS011;5685;52.384;13.420;2023-03-14T00:57:32;74.67;;;39.87;;
11255;SDS011;5685;52.384;13.420;2023-03-14T01:00:36;74.67;;;39.90;;
11255;SDS011;5685;52.384;13.420;2023-03-14T01:03:39;74.70;;;40.00;;
11255;SDS011;5685;52.384;13.420;2023-03-14T01:06:42;74.37;;;39.77;;
11255;SDS011;5685;52.384;13.420;2023-03-14T01:09:45;74.97;;;39.97;;
11255;SDS011;5685;52.384;13.420;2023-03-14T01:12:47;74.13;;;39.57;;
11255;SDS011;5685;52.384;13.420;2023-03-14T01:15:52;74.20;;;39.77;;
11255;SDS011;5685;52.384;13.420;2023-03-14T01:18:54;73.80;;;39.60;;
11255;SDS011;5685;52.384;13.420;2023-03-14T01:21:57;74.20;;;39.80;;
11255;SDS011;5685;52.384;13.420;2023-03-14T01:25:00;73.77;;;39.60;;
11255;SDS011;5685;52.384;13.420;2023-03-14T01:28:03;73.83;;;39.60;;
11255;SDS011;5685;52.384;13.420;2023-03-14T01:31:08;74.23;;;39.87;;
11255;SDS011;5685;52.384;13.420;2023-03-14T01:34:11;73.77;;;39.60;;
11255;SDS011;5685;52.384;13.420;2023-03-14T01:37:14;73.10;;;39.17;;
11255;SDS011;5685;52.384;13.420;2023-03-14T01:40:16;73.87;;;39.60;;
11255;SDS011;5685;52.384;13.420;2023-03-14T01:43:19;73.33;;;39.30;;
11255;SDS011;5685;52.384;13.420;2023-03-14T01:46:30;74.03;;;39.67;;
11255;SDS011;5685;52.384;13.420;2023-03-14T01:49:35;73.47;;;39.43;;
11255;SDS011;5685;52.384;13.420;2023-03-14T01:52:39;73.37;;;39.37;;
11255;SDS011;5685;52.384;13.420;2023-03-14T01:55:45;73.90;;;39.70;;
11255;SDS011;5685;52.384;13.420;2023-03-14T01:58:48;73.63;;;39.50;;
11255;SDS011;5685;52.384;13.420;2023-03-14T02:01:54;74.00;;;39.70;;
11255;SDS011;5685;52.384;13.420;2023-03-14T02:04:57;74.43;;;39.80;;
11255;SDS011;5685;52.384;13.420;2023-03-14T02:08:02;73.97;;;39.57;;
11255;SDS011;5685;52.384;13.420;2023-03-14T02:11:06;73.90;;;39.50;;
11255;SDS011;5685;52.384;13.420;2023-03-14T02:14:09;74.20;;;39.60;;
11255;SDS011;5685;52.384;13.420;2023-03-14T02:17:20;74.40;;;39.80;;
11255;SDS011;5685;52.384;13.420;2023-03-14T02:20:27;73.47;;;39.40;;
11255;SDS011;5685;52.384;13.420;2023-03-14T02:23:33;73.93;;;39.53;;
11255;SDS011;5685;52.384;13.420;2023-03-14T02:26:39;73.83;;;39.53;;
11255;SDS011;5685;52.384;13.420;2023-03-14T02:29:48;73.73;;;39.60;;
11255;SDS011;5685;52.384;13.420;2023-03-14T02:32:54;73.90;;;39.60;;
11255;SDS011;5685;52.384;13.420;2023-03-14T02:35:59;73.33;;;39.37;;
11255;SDS011;5685;52.384;13.420;2023-03-14T02:39:05;74.23;;;39.80;;
11255;SDS011;5685;52.384;13.420;2023-03-14T02:42:09;73.70;;;39.50;;
11255;SDS011;5685;52.384;13.420;2023-03-14T02:48:43;73.03;;;39.27;;
11255;SDS011;5685;52.384;13.420;2023-03-14T02:51:47;73.33;;;39.33;;
11255;SDS011;5685;52.384;13.420;2023-03-14T02:54:50;73.50;;;39.57;;
11255;SDS011;5685;52.384;13.420;2023-03-14T02:57:53;73.70;;;39.63;;
11255;SDS011;5685;52.384;13.420;2023-03-14T03:00:57;73.13;;;39.30;;
11255;SDS011;5685;52.384;13.420;2023-03-14T03:03:59;73.47;;;39.47;;
11255;SDS011;5685;52.384;13.420;2023-03-14T03:07:02;72.87;;;39.30;;
11255;SDS011;5685;52.384;13.420;2023-03-14T03:10:05;73.03;;;39.30;;
11255;SDS011;5685;52.384;13.420;2023-03-14T03:13:09;73.00;;;39.30;;
11255;SDS011;5685;52.384;13.420;2023-03-14T03:16:13;73.37;;;39.50;;
11255;SDS011;5685;52.384;13.420;2023-03-14T03:19:16;72.97;;;39.20;;
11255;SDS011;5685;52.384;13.420;2023-03-14T03:22:19;73.83;;;39.70;;
11255;SDS011;5685;52.384;13.420;2023-03-14T03:25:21;73.33;;;39.53;;
11255;SDS011;5685;52.384;13.420;2023-03-14T03:28:24;73.47;;;39.57;;
11255;SDS011;5685;52.384;13.420;2023-03-14T03:31:29;73.43;;;39.60;;
11255;SDS011;5685;52.384;13.420;2023-03-14T03:34:31;73.23;;;39.40;;
11255;SDS011;5685;52.384;13.420;2023-03-14T03:37:35;72.37;;;39.13;;
11255;SDS011;5685;52.384;13.420;2023-03-14T03:40:37;72.27;;;39.27;;
11255;SDS011;5685;52.384;13.420;2023-03-14T03:43:40;71.50;;;38.90;;
11255;SDS011;5685;52.384;13.420;2023-03-14T03:46:44;72.00;;;39.10;;
11255;SDS011;5685;52.384;13.420;2023-03-14T03:49:47;71.93;;;39.00;;
11255;SDS011;5685;52.384;13.420;2023-03-14T03:52:50;71.57;;;38.87;;
11255;SDS011;5685;52.384;13.420;2023-03-14T03:55:52;72.63;;;39.20;;
11255;SDS011;5685;52.384;13.420;2023-03-14T03:58:55;72.50;;;39.13;;
11255;SDS011;5685;52.384;13.420;2023-03-14T04:01:59;72.13;;;39.07;;
11255;SDS011;5685;52.384;13.420;2023-03-14T04:05:02;71.77;;;38.77;;
11255;SDS011;5685;52.384;13.420;2023-03-14T04:08:05;72.57;;;39.07;;
11255;SDS011;5685;52.384;13.420;2023-03-14T04:11:08;72.27;;;38.90;;
11255;SDS011;5685;52.384;13.420;2023-03-14T04:14:11;72.93;;;39.20;;
11255;SDS011;5685;52.384;13.420;2023-03-14T04:17:15;72.80;;;39.10;;
11255;SDS011;5685;52.384;13.420;2023-03-14T04:20:18;72.93;;;39.10;;
11255;SDS011;5685;52.384;13.420;2023-03-14T04:23:21;73.63;;;39.50;;
11255;SDS011;5685;52.384;13.420;2023-03-14T04:26:24;72.53;;;38.93;;
11255;SDS011;5685;52.384;13.420;2023-03-14T04:29:27;73.50;;;39.23;;
11255;SDS011;5685;52.384;13.420;2023-03-14T04:32:31;73.23;;;39.17;;
11255;SDS011;5685;52.384;13.420;2023-03-14T04:35:34;73.70;;;39.40;;
11255;SDS011;5685;52.384;13.420;2023-03-14T04:38:37;73.70;;;39.40;;
11255;SDS011;5685;52.384;13.420;2023-03-14T04:41:40;73.40;;;39.20;;
11255;SDS011;5685;52.384;13.420;2023-03-14T04:44:42;72.50;;;38.93;;
11255;SDS011;5685;52.384;13.420;2023-03-14T04:47:48;72.57;;;39.10;;
11255;SDS011;5685;52.384;13.420;2023-03-14T04:50:51;72.83;;;39.13;;
11255;SDS011;5685;52.384;13.420;2023-03-14T04:53:54;73.20;;;39.40;;
11255;SDS011;5685;52.384;13.420;2023-03-14T04:56:57;72.23;;;39.00;;
11255;SDS011;5685;52.384;13.420;2023-03-14T04:59:59;72.53;;;39.10;;
11255;SDS011;5685;52.384;13.420;2023-03-14T05:03:07;73.40;;;39.53;;
11255;SDS011;5685;52.384;13.420;2023-03-14T05:06:10;72.43;;;39.10;;
11255;SDS011;5685;52.384;13.420;2023-03-14T05:09:13;72.90;;;39.20;;
11255;SDS011;5685;52.384;13.420;2023-03-14T05:12:16;73.30;;;39.37;;
11255;SDS011;5685;52.384;13.420;2023-03-14T05:15:19;73.63;;;39.50;;
11255;SDS011;5685;52.384;13.420;2023-03-14T05:18:23;73.00;;;39.13;;
11255;SDS011;5685;52.384;13.420;2023-03-14T05:21:26;73.27;;;39.37;;
11255;SDS011;5685;52.384;13.420;2023-03-14T05:24:29;73.03;;;39.20;;
11255;SDS011;5685;52.384;13.420;2023-03-14T05:27:32;73.53;;;39.43;;
11255;SDS011;5685;52.384;13.420;2023-03-14T05:30:34;72.93;;;39.10;;
11255;SDS011;5685;52.384;13.420;2023-03-14T05:33:39;73.40;;;39.30;;
11255;SDS011;5685;52.384;13.420;2023-03-14T05:36:42;73.73;;;39.30;;
11255;SDS011;5685;52.384;13.420;2023-03-14T05:39:45;73.23;;;39.13;;
11255;SDS011;5685;52.384;13.420;2023-03-14T05:42:47;73.87;;;39.43;;
11255;SDS011;5685;52.384;13.420;2023-03-14T05:45:50;73.97;;;39.50;;
11255;SDS011;5685;52.384;13.420;2023-03-14T05:48:54;73.40;;;39.27;;
11255;SDS011;5685;52.384;13.420;2023-03-14T05:51:57;73.23;;;39.23;;
11255;SDS011;5685;52.384;13.420;2023-03-14T05:54:59;73.37;;;39.37;;
11255;SDS011;5685;52.384;13.420;2023-03-14T05:58:02;73.37;;;39.20;;
11255;SDS011;5685;52.384;13.420;2023-03-14T06:01:05;73.30;;;39.23;;
11255;SDS011;5685;52.384;13.420;2023-03-14T06:04:10;73.70;;;39.37;;
11255;SDS011;5685;52.384;13.420;2023-03-14T06:07:13;73.43;;;39.20;;
11255;SDS011;5685;52.384;13.420;2023-03-14T06:10:16;73.47;;;39.30;;
11255;SDS011;5685;52.384;13.420;2023-03-14T06:13:19;73.40;;;39.30;;
11255;SDS011;5685;52.384;13.420;2023-03-14T06:16:21;73.10;;;39.27;;
11255;SDS011;5685;52.384;13.420;2023-03-14T06:19:26;73.53;;;39.40;;
11255;SDS011;5685;52.384;13.420;2023-03-14T06:22:29;73.77;;;39.40;;
11255;SDS011;5685;52.384;13.420;2023-03-14T06:25:32;73.87;;;39.50;;
11255;SDS011;5685;52.384;13.420;2023-03-14T06:28:35;73.97;;;39.40;;
11255;SDS011;5685;52.384;13.420;2023-03-14T06:31:37;73.40;;;39.30;;
11255;SDS011;5685;52.384;13.420;2023-03-14T06:34:42;73.97;;;39.47;;
11255;SDS011;5685;52.384;13.420;2023-03-14T06:37:45;73.90;;;39.50;;
11255;SDS011;5685;52.384;13.420;2023-03-14T06:40:47;73.47;;;39.40;;
11255;SDS011;5685;52.384;13.420;2023-03-14T06:43:50;73.20;;;39.10;;
11255;SDS011;5685;52.384;13.420;2023-03-14T06:46:53;74.30;;;39.53;;
11255;SDS011;5685;52.384;13.420;2023-03-14T06:49:57;74.27;;;39.60;;
11255;SDS011;5685;52.384;13.420;2023-03-14T06:53:00;74.17;;;39.40;;
11255;SDS011;5685;52.384;13.420;2023-03-14T06:56:03;73.80;;;39.40;;
11255;SDS011;5685;52.384;13.420;2023-03-14T06:59:06;73.47;;;39.33;;
11255;SDS011;5685;52.384;13.420;2023-03-14T07:02:09;73.77;;;39.37;;
11255;SDS011;5685;52.384;13.420;2023-03-14T07:05:14;73.67;;;39.40;;
11255;SDS011;5685;52.384;13.420;2023-03-14T07:08:17;74.10;;;39.50;;
11255;SDS011;5685;52.384;13.420;2023-03-14T07:11:19;73.40;;;39.30;;
11255;SDS011;5685;52.384;13.420;2023-03-14T07:14:22;73.83;;;39.60;;
11255;SDS011;5685;52.384;13.420;2023-03-14T07:17:25;73.90;;;39.50;;
11255;SDS011;5685;52.384;13.420;2023-03-14T07:20:29;73.80;;;39.37;;
11255;SDS011;5685;52.384;13.420;2023-03-14T07:23:32;73.83;;;39.40;;
11255;SDS011;5685;52.384;13.420;2023-03-14T07:26:35;74.57;;;39.70;;
11255;SDS011;5685;52.384;13.420;2023-03-14T07:29:38;74.40;;;39.57;;
11255;SDS011;5685;52.384;13.420;2023-03-14T07:32:40;74.47;;;39.70;;
11255;SDS011;5685;52.384;13.420;2023-03-14T07:35:45;74.30;;;39.60;;
11255;SDS011;5685;52.384;13.420;2023-03-14T07:38:48;73.97;;;39.37;;
11255;SDS011;5685;52.384;13.420;2023-03-14T07:41:52;74.03;;;39.57;;
11255;SDS011;5685;52.384;13.420;2023-03-14T07:44:55;74.63;;;39.70;;
11255;SDS011;5685;52.384;13.420;2023-03-14T07:47:58;75.10;;;39.90;;
11255;SDS011;5685;52.384;13.420;2023-03-14T07:51:03;74.67;;;39.60;;
11255;SDS011;5685;52.384;13.420;2023-03-14T07:54:06;75.70;;;40.00;;
11255;SDS011;5685;52.384;13.420;2023-03-14T07:57:09;74.87;;;39.70;;
11255;SDS011;5685;52.384;13.420;2023-03-14T08:00:12;74.57;;;39.63;;
11255;SDS011;5685;52.384;13.420;2023-03-14T08:03:16;74.87;;;39.77;;
11255;SDS011;5685;52.384;13.420;2023-03-14T08:06:20;74.70;;;39.70;;
11255;SDS011;5685;52.384;13.420;2023-03-14T08:09:22;74.90;;;39.77;;
11255;SDS011;5685;52.384;13.420;2023-03-14T08:12:25;74.60;;;39.67;;
11255;SDS011;5685;52.384;13.420;2023-03-14T08:15:28;74.73;;;39.63;;
11255;SDS011;5685;52.384;13.420;2023-03-14T08:18:32;74.70;;;39.63;;
11255;SDS011;5685;52.384;13.420;2023-03-14T08:21:36;74.80;;;39.63;;
11255;SDS011;5685;52.384;13.420;2023-03-14T08:24:39;75.07;;;39.70;;
11255;SDS011;5685;52.384;13.420;2023-03-14T08:27:42;74.93;;;39.70;;
11255;SDS011;5685;52.384;13.420;2023-03-14T08:30:45;74.80;;;39.67;;
11255;SDS011;5685;52.384;13.420;2023-03-14T08:33:47;74.93;;;39.70;;
11255;SDS011;5685;52.384;13.420;2023-03-14T08:36:53;74.80;;;39.60;;
11255;SDS011;5685;52.384;13.420;2023-03-14T08:39:56;74.70;;;39.60;;
11255;SDS011;5685;52.384;13.420;2023-03-14T08:42:59;74.27;;;39.60;;
11255;SDS011;5685;52.384;13.420;2023-03-14T08:46:02;73.90;;;39.57;;
11255;SDS011;5685;52.384;13.420;2023-03-14T08:49:06;73.60;;;39.53;;
11255;SDS011;5685;52.384;13.420;2023-03-14T08:52:10;72.73;;;39.10;;
11255;SDS011;5685;52.384;13.420;2023-03-14T08:55:13;73.17;;;39.20;;
11255;SDS011;5685;52.384;13.420;2023-03-14T08:58:15;72.80;;;39.13;;
11255;SDS011;5685;52.384;13.420;2023-03-14T09:01:18;73.20;;;39.27;;
11255;SDS011;5685;52.384;13.420;2023-03-14T09:04:24;72.57;;;39.07;;
11255;SDS011;5685;52.384;13.420;2023-03-14T09:07:28;72.93;;;39.30;;
11255;SDS011;5685;52.384;13.420;2023-03-14T09:10:30;72.53;;;39.10;;
11255;SDS011;5685;52.384;13.420;2023-03-14T09:13:33;72.27;;;39.10;;
11255;SDS011;5685;52.384;13.420;2023-03-14T09:16:36;71.87;;;39.03;;
11255;SDS011;5685;52.384;13.420;2023-03-14T09:19:39;72.70;;;39.43;;
11255;SDS011;5685;52.384;13.420;2023-03-14T09:22:43;73.33;;;39.43;;
11255;SDS011;5685;52.384;13.420;2023-03-14T09:25:46;73.70;;;39.23;;
11255;SDS011;5685;52.384;13.420;2023-03-14T09:28:49;74.43;;;39.70;;
11255;SDS011;5685;52.384;13.420;2023-03-14T09:31:52;74.23;;;39.57;;
11255;SDS011;5685;52.384;13.420;2023-03-14T09:34:55;74.27;;;39.70;;
11255;SDS011;5685;52.384;13.420;2023-03-14T09:37:59;74.17;;;39.70;;
11255;SDS011;5685;52.384;13.420;2023-03-14T09:41:02;73.47;;;39.40;;
11255;SDS011;5685;52.384;13.420;2023-03-14T09:44:13;73.93;;;39.50;;
11255;SDS011;5685;52.384;13.420;2023-03-14T09:47:17;73.50;;;39.40;;
11255;SDS011;5685;52.384;13.420;2023-03-14T09:50:21;74.03;;;39.60;;
11255;SDS011;5685;52.384;13.420;2023-03-14T09:53:26;74.37;;;39.80;;
11255;SDS011;5685;52.384;13.420;2023-03-14T09:56:32;73.90;;;39.60;;
11255;SDS011;5685;52.384;13.420;2023-03-14T09:59:35;73.77;;;39.50;;
11255;SDS011;5685;52.384;13.420;2023-03-14T10:02:39;74.40;;;39.63;;
11255;SDS011;5685;52.384;13.420;2023-03-14T10:05:43;74.27;;;39.77;;
11255;SDS011;5685;52.384;13.420;2023-03-14T10:08:47;74.87;;;39.90;;
11255;SDS011;5685;52.384;13.420;2023-03-14T10:11:51;74.63;;;39.77;;
11255;SDS011;5685;52.384;13.420;2023-03-14T10:14:55;74.30;;;39.53;;
11255;SDS011;5685;52.384;13.420;2023-03-14T10:17:58;74.27;;;39.70;;
11255;SDS011;5685;52.384;13.420;2023-03-14T10:21:04;74.50;;;39.70;;
11255;SDS011;5685;52.384;13.420;2023-03-14T10:24:19;74.60;;;39.67;;
11255;SDS011;5685;52.384;13.420;2023-03-14T10:27:27;74.40;;;39.60;;
11255;SDS011;5685;52.384;13.420;2023-03-14T10:30:33;74.33;;;39.63;;
11255;SDS011;5685;52.384;13.420;2023-03-14T10:33:57;74.80;;;39.80;;
11255;SDS011;5685;52.384;13.420;2023-03-14T10:37:04;74.17;;;39.50;;
11255;SDS011;5685;52.384;13.420;2023-03-14T10:40:13;73.70;;;39.37;;
11255;SDS011;5685;52.384;13.420;2023-03-14T10:43:16;73.90;;;39.53;;
11255;SDS011;5685;52.384;13.420;2023-03-14T10:46:21;74.03;;;39.63;;
11255;SDS011;5685;52.384;13.420;2023-03-14T10:49:28;73.77;;;39.53;;
11255;SDS011;5685;52.384;13.420;2023-03-14T10:52:31;74.13;;;39.70;;
11255;SDS011;5685;52.384;13.420;2023-03-14T10:55:40;74.07;;;39.77;;
11255;SDS011;5685;52.384;13.420;2023-03-14T10:58:45;73.93;;;39.67;;
11255;SDS011;5685;52.384;13.420;2023-03-14T11:01:50;74.60;;;39.77;;
11255;SDS011;5685;52.384;13.420;2023-03-14T11:05:01;73.73;;;39.50;;
11255;SDS011;5685;52.384;13.420;2023-03-14T11:08:11;73.90;;;39.60;;
11255;SDS011;5685;52.384;13.420;2023-03-14T11:11:20;74.10;;;39.80;;
11255;SDS011;5685;52.384;13.420;2023-03-14T11:14:26;74.40;;;39.70;;
11255;SDS011;5685;52.384;13.420;2023-03-14T11:17:34;73.60;;;39.60;;
11255;SDS011;5685;52.384;13.420;2023-03-14T11:20:44;73.80;;;39.60;;
11255;SDS011;5685;52.384;13.420;2023-03-14T11:23:54;73.90;;;39.70;;
11255;SDS011;5685;52.384;13.420;2023-03-14T11:27:06;73.00;;;39.27;;
11255;SDS011;5685;52.384;13.420;2023-03-14T11:30:16;73.90;;;39.60;;
11255;SDS011;5685;52.384;13.420;2023-03-14T11:33:22;74.13;;;39.73;;
11255;SDS011;5685;52.384;13.420;2023-03-14T11:36:27;74.37;;;39.77;;
11255;SDS011;5685;52.384;13.420;2023-03-14T11:39:35;74.23;;;39.60;;
11255;SDS011;5685;52.384;13.420;2023-03-14T11:42:43;74.57;;;39.87;;
11255;SDS011;5685;52.384;13.420;2023-03-14T11:45:48;74.40;;;39.70;;
11255;SDS011;5685;52.384;13.420;2023-03-14T11:48:56;74.63;;;39.90;;
11255;SDS011;5685;52.384;13.420;2023-03-14T11:52:03;74.03;;;39.60;;
11255;SDS011;5685;52.384;13.420;2023-03-14T11:55:10;74.07;;;39.67;;
11255;SDS011;5685;52.384;13.420;2023-03-14T11:58:20;74.73;;;39.80;;
11255;SDS011;5685;52.384;13.420;2023-03-14T12:01:27;74.50;;;39.80;;
11255;SDS011;5685;52.384;13.420;2023-03-14T12:04:46;73.80;;;39.60;;
11255;SDS011;5685;52.384;13.420;2023-03-14T12:08:19;73.80;;;39.60;;
11255;SDS011;5685;52.384;13.420;2023-03-14T12:11:48;73.87;;;39.60;;
11255;SDS011;5685;52.384;13.420;2023-03-14T12:14:58;73.30;;;39.43;;
11255;SDS011;5685;52.384;13.420;2023-03-14T12:18:01;73.47;;;39.40;;
11255;SDS011;5685;52.384;13.420;2023-03-14T12:21:05;74.10;;;39.67;;
11255;SDS011;5685;52.384;13.420;2023-03-14T12:24:14;73.63;;;39.50;;
11255;SDS011;5685;52.384;13.420;2023-03-14T12:27:40;73.53;;;39.50;;
11255;SDS011;5685;52.384;13.420;2023-03-14T12:30:53;74.20;;;39.80;;
11255;SDS011;5685;52.384;13.420;2023-03-14T12:34:00;73.90;;;39.57;;
11255;SDS011;5685;52.384;13.420;2023-03-14T12:37:05;73.97;;;39.70;;
11255;SDS011;5685;52.384;13.420;2023-03-14T12:40:17;74.10;;;39.87;;
11255;SDS011;5685;52.384;13.420;2023-03-14T12:43:25;73.83;;;39.67;;
11255;SDS011;5685;52.384;13.420;2023-03-14T12:46:31;73.70;;;39.60;;
11255;SDS011;5685;52.384;13.420;2023-03-14T12:49:34;73.63;;;39.60;;
11255;SDS011;5685;52.384;13.420;2023-03-14T12:52:41;73.40;;;39.53;;
11255;SDS011;5685;52.384;13.420;2023-03-14T12:55:53;73.53;;;39.60;;
11255;SDS011;5685;52.384;13.420;2023-03-14T12:59:05;73.53;;;39.63;;
11255;SDS011;5685;52.384;13.420;2023-03-14T13:02:36;73.10;;;39.57;;
11255;SDS011;5685;52.384;13.420;2023-03-14T13:05:51;72.83;;;39.50;;
11255;SDS011;5685;52.384;13.420;2023-03-14T13:08:54;72.20;;;39.20;;
11255;SDS011;5685;52.384;13.420;2023-03-14T13:12:00;71.97;;;39.13;;
11255;SDS011;5685;52.384;13.420;2023-03-14T13:15:12;71.87;;;39.33;;
11255;SDS011;5685;52.384;13.420;2023-03-14T13:18:26;72.13;;;39.50;;
11255;SDS011;5685;52.384;13.420;2023-03-14T13:21:34;71.87;;;39.20;;
11255;SDS011;5685;52.384;13.420;2023-03-14T13:24:37;71.37;;;39.20;;
11255;SDS011;5685;52.384;13.420;2023-03-14T13:27:40;71.23;;;39.27;;
11255;SDS011;5685;52.384;13.420;2023-03-14T13:30:43;71.57;;;39.40;;
11255;SDS011;5685;52.384;13.420;2023-03-14T13:33:49;71.60;;;39.30;;
11255;SDS011;5685;52.384;13.420;2023-03-14T13:36:59;71.90;;;39.33;;
11255;SDS011;5685;52.384;13.420;2023-03-14T13:40:02;72.07;;;39.27;;
11255;SDS011;5685;52.384;13.420;2023-03-14T13:43:10;72.80;;;39.53;;
11255;SDS011;5685;52.384;13.420;2023-03-14T13:46:19;72.40;;;39.30;;
11255;SDS011;5685;52.384;13.420;2023-03-14T13:49:26;72.30;;;39.37;;
11255;SDS011;5685;52.384;13.420;2023-03-14T13:52:35;71.97;;;39.43;;
11255;SDS011;5685;52.384;13.420;2023-03-14T13:55:38;71.60;;;39.43;;
11255;SDS011;5685;52.384;13.420;2023-03-14T13:58:41;71.77;;;39.60;;
11255;SDS011;5685;52.384;13.420;2023-03-14T14:01:44;73.23;;;39.90;;
11255;SDS011;5685;52.384;13.420;2023-03-14T14:04:50;72.83;;;39.70;;
11255;SDS011;5685;52.384;13.420;2023-03-14T14:07:53;72.83;;;39.80;;
11255;SDS011;5685;52.384;13.420;2023-03-14T14:10:57;72.53;;;39.50;;
11255;SDS011;5685;52.384;13.420;2023-03-14T14:14:01;72.23;;;39.40;;
11255;SDS011;5685;52.384;13.420;2023-03-14T14:17:05;73.30;;;39.80;;
11255;SDS011;5685;52.384;13.420;2023-03-14T14:20:13;73.27;;;39.70;;
11255;SDS011;5685;52.384;13.420;2023-03-14T14:23:24;73.67;;;39.70;;
11255;SDS011;5685;52.384;13.420;2023-03-14T14:26:28;73.40;;;39.90;;
11255;SDS011;5685;52.384;13.420;2023-03-14T14:29:32;74.33;;;40.00;;
11255;SDS011;5685;52.384;13.420;2023-03-14T14:32:35;74.00;;;40.00;;
11255;SDS011;5685;52.384;13.420;2023-03-14T14:35:40;73.70;;;40.00;;
11255;SDS011;5685;52.384;13.420;2023-03-14T14:38:48;73.20;;;39.63;;
11255;SDS011;5685;52.384;13.420;2023-03-14T14:41:54;73.70;;;39.83;;
11255;SDS011;5685;52.384;13.420;2023-03-14T14:44:57;73.50;;;39.80;;
11255;SDS011;5685;52.384;13.420;2023-03-14T14:48:02;73.70;;;39.97;;
11255;SDS011;5685;52.384;13.420;2023-03-14T14:51:08;73.57;;;39.73;;
11255;SDS011;5685;52.384;13.420;2023-03-14T14:54:13;73.67;;;39.83;;
11255;SDS011;5685;52.384;13.420;2023-03-14T14:57:18;74.03;;;39.93;;
11255;SDS011;5685;52.384;13.420;2023-03-14T15:00:22;73.27;;;39.57;;
11255;SDS011;5685;52.384;13.420;2023-03-14T15:03:26;73.83;;;39.90;;
11255;SDS011;5685;52.384;13.420;2023-03-14T15:06:32;74.53;;;40.17;;
11255;SDS011;5685;52.384;13.420;2023-03-14T15:09:35;74.40;;;40.10;;
11255;SDS011;5685;52.384;13.420;2023-03-14T15:12:38;74.33;;;40.17;;
11255;SDS011;5685;52.384;13.420;2023-03-14T15:15:41;73.87;;;40.07;;
11255;SDS011;5685;52.384;13.420;2023-03-14T15:18:44;73.13;;;39.73;;
11255;SDS011;5685;52.384;13.420;2023-03-14T15:21:50;73.50;;;40.00;;
11255;SDS011;5685;52.384;13.420;2023-03-14T15:24:53;72.93;;;39.60;;
11255;SDS011;5685;52.384;13.420;2023-03-14T15:27:56;73.73;;;40.10;;
11255;SDS011;5685;52.384;13.420;2023-03-14T15:30:58;73.00;;;39.83;;
11255;SDS011;5685;52.384;13.420;2023-03-14T15:34:01;71.83;;;39.47;;
11255;SDS011;5685;52.384;13.420;2023-03-14T15:37:07;71.93;;;39.50;;
11255;SDS011;5685;52.384;13.420;2023-03-14T15:40:12;71.73;;;39.47;;
11255;SDS011;5685;52.384;13.420;2023-03-14T15:43:16;72.47;;;39.60;;
11255;SDS011;5685;52.384;13.420;2023-03-14T15:46:19;72.37;;;39.60;;
11255;SDS011;5685;52.384;13.420;2023-03-14T15:49:21;72.63;;;39.87;;
11255;SDS011;5685;52.384;13.420;2023-03-14T15:52:26;73.40;;;39.97;;
11255;SDS011;5685;52.384;13.420;2023-03-14T15:55:28;72.73;;;39.73;;
11255;SDS011;5685;52.384;13.420;2023-03-14T15:58:31;73.00;;;39.80;;
11255;SDS011;5685;52.384;13.420;2023-03-14T16:01:35;73.27;;;39.90;;
11255;SDS011;5685;52.384;13.420;2023-03-14T16:04:37;73.43;;;39.87;;
11255;SDS011;5685;52.384;13.420;2023-03-14T16:07:41;73.53;;;40.00;;
11255;SDS011;5685;52.384;13.420;2023-03-14T16:10:44;73.67;;;40.03;;
11255;SDS011;5685;52.384;13.420;2023-03-14T16:13:47;73.10;;;39.90;;
11255;SDS011;5685;52.384;13.420;2023-03-14T16:16:51;73.37;;;39.90;;
11255;SDS011;5685;52.384;13.420;2023-03-14T16:19:54;73.47;;;40.00;;
11255;SDS011;5685;52.384;13.420;2023-03-14T16:22:59;73.40;;;39.90;;
11255;SDS011;5685;52.384;13.420;2023-03-14T16:26:03;73.07;;;39.80;;
11255;SDS011;5685;52.384;13.420;2023-03-14T16:29:06;73.13;;;39.80;;
11255;SDS011;5685;52.384;13.420;2023-03-14T16:32:09;72.90;;;39.80;;
11255;SDS011;5685;52.384;13.420;2023-03-14T16:35:12;72.60;;;39.70;;
11255;SDS011;5685;52.384;13.420;2023-03-14T16:38:16;72.70;;;39.63;;
11255;SDS011;5685;52.384;13.420;2023-03-14T16:41:19;73.10;;;39.83;;
11255;SDS011;5685;52.384;13.420;2023-03-14T16:44:22;73.83;;;40.10;;
11255;SDS011;5685;52.384;13.420;2023-03-14T16:47:24;72.27;;;39.57;;
11255;SDS011;5685;52.384;13.420;2023-03-14T16:50:29;72.33;;;39.50;;
11255;SDS011;5685;52.384;13.420;2023-03-14T16:53:33;72.20;;;39.50;;
11255;SDS011;5685;52.384;13.420;2023-03-14T16:56:36;73.23;;;40.07;;
11255;SDS011;5685;52.384;13.420;2023-03-14T16:59:38;72.50;;;39.57;;
11255;SDS011;5685;52.384;13.420;2023-03-14T17:02:41;72.63;;;39.67;;
11255;SDS011;5685;52.384;13.420;2023-03-14T17:05:44;72.63;;;39.77;;
11255;SDS011;5685;52.384;13.420;2023-03-14T17:08:49;72.23;;;39.40;;
11255;SDS011;5685;52.384;13.420;2023-03-14T17:11:51;72.60;;;39.80;;
11255;SDS011;5685;52.384;13.420;2023-03-14T17:14:54;71.97;;;39.33;;
11255;SDS011;5685;52.384;13.420;2023-03-14T17:17:57;73.10;;;39.80;;
11255;SDS011;5685;52.384;13.420;2023-03-14T17:21:02;72.87;;;39.70;;
11255;SDS011;5685;52.384;13.420;2023-03-14T17:24:07;72.40;;;39.47;;
11255;SDS011;5685;52.384;13.420;2023-03-14T17:27:09;72.07;;;39.47;;
11255;SDS011;5685;52.384;13.420;2023-03-14T17:30:17;72.97;;;39.73;;
11255;SDS011;5685;52.384;13.420;2023-03-14T17:33:20;72.90;;;39.70;;
11255;SDS011;5685;52.384;13.420;2023-03-14T17:36:22;71.80;;;39.20;;
11255;SDS011;5685;52.384;13.420;2023-03-14T17:39:30;73.00;;;39.70;;
11255;SDS011;5685;52.384;13.420;2023-03-14T17:42:33;72.37;;;39.60;;
11255;SDS011;5685;52.384;13.420;2023-03-14T17:45:36;72.10;;;39.37;;
11255;SDS011;5685;52.384;13.420;2023-03-14T17:48:39;73.27;;;39.83;;
11255;SDS011;5685;52.384;13.420;2023-03-14T17:51:41;72.10;;;39.37;;
11255;SDS011;5685;52.384;13.420;2023-03-14T17:54:45;72.17;;;39.30;;
11255;SDS011;5685;52.384;13.420;2023-03-14T17:57:48;71.90;;;39.23;;
11255;SDS011;5685;52.384;13.420;2023-03-14T18:00:51;72.77;;;39.60;;
11255;SDS011;5685;52.384;13.420;2023-03-14T18:03:54;72.47;;;39.43;;